Time;durP1;ratioP1;P1;durP2;ratioP2;P2;SDS_P1;SDS_P2;PMS_P1;PMS_P2;Temp;Humidity;BMP_temperature;BMP_pressure;BME280_temperature;BME280_humidity;BME280_pressure;Samples;Min_cycle;Max_cycle;Signal;HPM_P1;HPM_P2
2021/12/22 00:01:11;;;;;;;47.20;14.95;;;;;;;-3.42;85.44;99727.29;2192452;81;21537;-67
2021/12/22 00:04:11;;;;;;;42.60;14.95;;;;;;;-3.44;85.52;99734.13;2171722;82;21023;-66
2021/12/22 00:07:12;;;;;;;44.45;15.25;;;;;;;-3.43;85.50;99735.82;2192218;81;21074;-67
2021/12/22 00:10:12;;;;;;;44.98;16.20;;;;;;;-3.44;85.47;99731.56;2171945;82;20969;-67
2021/12/22 00:13:12;;;;;;;44.77;15.75;;;;;;;-3.49;85.64;99730.23;2191887;81;21016;-67
2021/12/22 00:16:13;;;;;;;42.67;15.45;;;;;;;-3.54;85.83;99734.01;2171761;82;20988;-66
2021/12/22 00:19:13;;;;;;;46.65;15.95;;;;;;;-3.58;85.62;99736.09;2192306;81;21498;-67
2021/12/22 00:22:14;;;;;;;43.05;14.40;;;;;;;-3.58;85.67;99742.51;2171691;82;21044;-66
2021/12/22 00:25:16;;;;;;;41.90;14.07;;;;;;;-3.57;85.73;99740.39;2191974;81;21372;-66
2021/12/22 00:28:16;;;;;;;48.20;16.20;;;;;;;-3.60;85.84;99736.95;2172074;82;21060;-66
2021/12/22 00:31:20;;;;;;;44.98;15.85;;;;;;;-3.61;85.88;99743.77;2192293;81;21497;-66
2021/12/22 00:34:19;;;;;;;48.28;16.40;;;;;;;-3.63;86.03;99743.30;2146728;82;21044;-67
2021/12/22 00:37:19;;;;;;;47.80;16.85;;;;;;;-3.63;85.94;99737.77;2192369;81;20987;-67
2021/12/22 00:40:20;;;;;;;42.73;14.93;;;;;;;-3.63;86.03;99739.45;2171693;82;21053;-66
2021/12/22 00:43:21;;;;;;;44.53;15.55;;;;;;;-3.63;86.06;99749.71;2192071;81;21050;-67
2021/12/22 00:46:21;;;;;;;46.10;16.62;;;;;;;-3.65;86.22;99750.98;2171814;82;20988;-67
2021/12/22 00:49:21;;;;;;;44.88;17.17;;;;;;;-3.67;86.39;99748.40;2192379;81;21006;-67
2021/12/22 00:52:22;;;;;;;46.80;17.30;;;;;;;-3.68;86.56;99745.82;2171645;82;21537;-67
2021/12/22 00:55:23;;;;;;;45.92;17.00;;;;;;;-3.64;86.77;99756.98;2192285;81;20944;-67
2021/12/22 00:58:23;;;;;;;51.53;18.73;;;;;;;-3.68;86.79;99751.83;2171780;82;20965;-67
2021/12/22 01:01:24;;;;;;;47.98;15.98;;;;;;;-3.68;87.16;99750.95;2192313;81;21286;-66
2021/12/22 01:04:24;;;;;;;47.10;18.00;;;;;;;-3.68;86.99;99756.08;2171803;82;21024;-67
2021/12/22 01:07:25;;;;;;;46.50;17.62;;;;;;;-3.70;87.20;99756.50;2192248;81;21496;-66
2021/12/22 01:10:25;;;;;;;48.45;16.80;;;;;;;-3.72;86.77;99762.01;2171670;82;21024;-66
2021/12/22 01:13:27;;;;;;;50.95;16.27;;;;;;;-3.77;87.02;99759.39;2192169;81;21011;-67
2021/12/22 01:16:27;;;;;;;39.95;15.93;;;;;;;-3.79;87.36;99757.65;2171764;82;21099;-67
2021/12/22 01:19:37;;;;;;;44.35;15.25;;;;;;;-3.83;87.57;99758.05;2192361;81;21470;-67
2021/12/22 01:25:32;;;;;;;45.05;14.87;;;;;;;-3.87;87.91;99757.14;2192514;81;20984;-67
2021/12/22 01:28:40;;;;;;;43.80;14.53;;;;;;;-3.90;88.16;99752.41;2171315;82;21489;-66
2021/12/22 01:31:36;;;;;;;42.78;15.75;;;;;;;-3.94;88.82;99753.20;2165107;81;21031;-67
2021/12/22 01:34:36;;;;;;;40.55;14.90;;;;;;;-3.96;87.91;99755.75;2171614;82;21012;-67
2021/12/22 01:37:36;;;;;;;48.48;17.12;;;;;;;-3.96;88.26;99761.31;2192373;81;20988;-66
2021/12/22 01:40:37;;;;;;;39.98;14.38;;;;;;;-3.97;88.14;99754.45;2171974;82;20984;-67
2021/12/22 01:43:37;;;;;;;43.15;15.78;;;;;;;-3.97;88.62;99764.28;2192567;81;20999;-67
2021/12/22 01:49:40;;;;;;;43.25;14.65;;;;;;;-4.03;88.13;99763.77;2192468;81;21034;-67
2021/12/22 01:52:40;;;;;;;45.83;14.58;;;;;;;-4.06;88.43;99766.30;2171750;82;21040;-67
2021/12/22 01:55:40;;;;;;;37.70;12.75;;;;;;;-4.08;88.76;99765.84;2192353;81;21482;-67
2021/12/22 01:58:41;;;;;;;40.23;13.30;;;;;;;-4.09;89.39;99757.73;2171423;82;21064;-66
2021/12/22 02:01:41;;;;;;;39.88;12.35;;;;;;;-4.11;89.75;99764.52;2192229;81;21011;-67
2021/12/22 02:04:45;;;;;;;40.08;13.43;;;;;;;-4.12;89.99;99764.95;2171726;82;21139;-66
2021/12/22 02:07:48;;;;;;;39.80;12.65;;;;;;;-4.12;90.14;99768.80;2192371;81;21450;-66
2021/12/22 02:10:48;;;;;;;34.10;12.20;;;;;;;-4.10;90.24;99772.66;2147025;82;20989;-67
2021/12/22 02:13:55;;;;;;;36.95;12.85;;;;;;;-4.08;90.29;99771.84;2192205;81;21074;-67
2021/12/22 02:16:51;;;;;;;38.95;12.23;;;;;;;-4.03;90.40;99768.05;2146820;82;20996;-66
2021/12/22 02:19:52;;;;;;;35.30;12.23;;;;;;;-3.99;90.29;99763.41;2192344;81;21024;-67
2021/12/22 02:22:52;;;;;;;38.20;12.78;;;;;;;-3.95;90.64;99769.02;2171610;82;20976;-67
2021/12/22 02:26:02;;;;;;;33.60;12.47;;;;;;;-3.92;90.88;99770.34;2192034;81;21019;-66
2021/12/22 02:29:00;;;;;;;45.28;14.03;;;;;;;-3.87;90.57;99772.52;2146792;82;21590;-66
2021/12/22 02:35:03;;;;;;;38.55;13.95;;;;;;;-3.81;90.69;99777.30;2144937;82;21060;-66
2021/12/22 02:38:02;;;;;;;37.83;12.70;;;;;;;-3.83;90.99;99784.53;2156265;81;21004;-66
2021/12/22 02:41:02;;;;;;;39.08;13.58;;;;;;;-3.83;90.36;99779.41;2168099;82;21024;-67
2021/12/22 02:44:03;;;;;;;40.38;13.65;;;;;;;-3.86;89.83;99780.66;2185447;81;21474;-67
2021/12/22 02:47:04;;;;;;;38.05;13.15;;;;;;;-3.92;89.92;99780.59;2168299;82;21323;-67
2021/12/22 02:50:04;;;;;;;38.42;13.90;;;;;;;-4.00;89.93;99778.34;2185411;81;20987;-67
2021/12/22 02:53:07;;;;;;;40.17;14.40;;;;;;;-4.07;89.81;99777.81;2168227;82;21052;-67
2021/12/22 03:02:19;;;;;;;40.92;15.30;;;;;;;-4.10;90.52;99782.91;2156451;81;21453;-67
2021/12/22 03:05:14;;;;;;;38.40;13.83;;;;;;;-4.10;90.64;99773.94;2141688;82;21024;-67
2021/12/22 03:08:14;;;;;;;40.40;14.93;;;;;;;-4.08;91.13;99779.93;2185466;81;20984;-67
2021/12/22 03:11:14;;;;;;;41.98;15.90;;;;;;;-4.07;90.72;99783.79;2168495;82;20985;-67
2021/12/22 03:14:15;;;;;;;38.67;14.55;;;;;;;-4.10;90.78;99782.91;2185628;81;20928;-67
2021/12/22 03:17:15;;;;;;;42.55;15.00;;;;;;;-4.11;91.58;99782.02;2168344;82;21009;-67
2021/12/22 03:20:16;;;;;;;39.67;14.63;;;;;;;-4.11;91.45;99786.30;2185464;81;21521;-66
2021/12/22 03:23:17;;;;;;;40.95;15.65;;;;;;;-4.11;91.65;99788.86;2168079;82;21025;-66
2021/12/22 03:26:18;;;;;;;37.28;14.53;;;;;;;-4.13;91.84;99786.72;2184935;81;21067;-67
2021/12/22 03:29:19;;;;;;;42.93;15.10;;;;;;;-4.14;92.12;99788.39;2168109;82;21053;-67
2021/12/22 03:32:19;;;;;;;41.60;15.20;;;;;;;-4.20;92.74;99786.61;2185420;81;21513;-67
2021/12/22 03:35:21;;;;;;;41.55;14.07;;;;;;;-4.25;92.41;99792.50;2168158;82;21504;-67
2021/12/22 03:38:22;;;;;;;41.13;14.25;;;;;;;-4.35;92.19;99796.66;2185601;81;20971;-66
2021/12/22 03:41:22;;;;;;;39.18;14.05;;;;;;;-4.47;91.81;99799.02;2168265;82;21000;-67
2021/12/22 03:44:23;;;;;;;40.95;15.32;;;;;;;-4.64;90.74;99800.91;2185320;81;21055;-67
2021/12/22 03:47:25;;;;;;;43.23;14.43;;;;;;;-4.82;90.46;99809.56;2168165;82;21502;-66
2021/12/22 03:50:26;;;;;;;37.93;13.25;;;;;;;-4.92;90.62;99806.83;2156353;81;20972;-67
2021/12/22 03:53:26;;;;;;;37.90;14.30;;;;;;;-5.07;91.28;99805.27;2168214;82;21471;-67
2021/12/22 03:56:27;;;;;;;36.50;13.60;;;;;;;-5.18;91.34;99811.48;2185349;81;21003;-67
2021/12/22 03:59:27;;;;;;;38.15;13.45;;;;;;;-5.30;91.55;99812.13;2168251;82;21020;-67
2021/12/22 04:02:29;;;;;;;40.28;14.30;;;;;;;-5.34;92.37;99810.73;2185534;81;20936;-66
2021/12/22 04:05:29;;;;;;;40.07;13.73;;;;;;;-5.37;92.83;99810.29;2168362;82;21024;-67
2021/12/22 04:08:30;;;;;;;37.30;13.62;;;;;;;-5.47;92.64;99802.85;2185314;81;21223;-67
2021/12/22 04:11:30;;;;;;;38.80;14.43;;;;;;;-5.58;92.04;99810.30;2168057;82;20993;-67
2021/12/22 04:14:30;;;;;;;38.45;14.03;;;;;;;-5.68;92.17;99812.66;2185340;81;20988;-67
2021/12/22 04:17:31;;;;;;;36.80;14.90;;;;;;;-5.76;92.78;99815.03;2168683;82;20973;-66
2021/12/22 04:20:31;;;;;;;42.73;15.05;;;;;;;-5.81;92.33;99812.81;2185396;81;20940;-67
2021/12/22 04:23:32;;;;;;;43.92;15.23;;;;;;;-5.87;91.73;99818.66;2168174;82;20937;-67
2021/12/22 04:26:33;;;;;;;41.30;15.63;;;;;;;-5.83;92.17;99824.68;2184964;81;21495;-67
2021/12/22 04:29:34;;;;;;;46.55;16.35;;;;;;;-5.83;92.60;99823.00;2168066;82;20965;-67
2021/12/22 04:32:34;;;;;;;42.38;16.80;;;;;;;-5.84;92.45;99829.37;2185378;81;21003;-67
2021/12/22 04:35:35;;;;;;;39.98;15.23;;;;;;;-5.88;92.24;99825.02;2168114;82;21005;-67
2021/12/22 04:38:35;;;;;;;43.20;15.48;;;;;;;-5.94;92.34;99822.77;2185263;81;21015;-67
2021/12/22 04:41:35;;;;;;;40.40;15.72;;;;;;;-5.93;92.38;99820.66;2168099;82;20997;-66
2021/12/22 04:44:36;;;;;;;44.13;16.23;;;;;;;-5.94;92.18;99826.59;2185259;81;21522;-67
2021/12/22 04:47:36;;;;;;;42.93;16.25;;;;;;;-6.00;92.01;99823.95;2168067;82;20941;-67
2021/12/22 04:50:37;;;;;;;43.38;16.12;;;;;;;-6.01;91.71;99823.49;2185245;81;20944;-67
2021/12/22 04:53:47;;;;;;;44.88;16.93;;;;;;;-6.05;91.18;99829.78;2168281;82;20949;-67
2021/12/22 04:56:40;;;;;;;45.50;17.12;;;;;;;-6.08;90.63;99831.85;2156637;81;20979;-67
2021/12/22 04:59:40;;;;;;;47.27;17.42;;;;;;;-6.12;90.46;99830.94;2168204;82;21072;-67
2021/12/22 05:02:41;;;;;;;46.48;17.05;;;;;;;-6.07;90.41;99828.48;2185363;81;21007;-67
2021/12/22 05:05:41;;;;;;;59.13;20.60;;;;;;;-6.02;90.18;99836.23;2168190;82;20962;-67
2021/12/22 05:08:41;;;;;;;67.55;24.95;;;;;;;-6.13;88.85;99837.29;2185237;81;21530;-67
2021/12/22 05:11:42;;;;;;;66.90;25.80;;;;;;;-6.27;88.91;99848.45;2168037;82;20997;-67
2021/12/22 05:14:47;;;;;;;73.80;26.45;;;;;;;-6.37;88.81;99846.09;2185370;81;21079;-66
2021/12/22 05:20:45;;;;;;;72.05;29.12;;;;;;;-6.41;89.58;99848.13;2185253;81;21011;-66
2021/12/22 05:23:46;;;;;;;109.55;42.50;;;;;;;-6.43;89.54;99840.00;2168147;82;21052;-67
2021/12/22 05:26:47;;;;;;;87.75;36.68;;;;;;;-6.51;89.34;99847.03;2185355;81;21475;-67
2021/12/22 05:29:47;;;;;;;77.42;32.67;;;;;;;-6.53;89.53;99849.13;2167727;82;20997;-67
2021/12/22 05:32:48;;;;;;;82.00;32.40;;;;;;;-6.56;89.46;99855.01;2185192;81;20944;-67
2021/12/22 05:35:48;;;;;;;75.22;28.87;;;;;;;-6.59;89.33;99855.33;2167809;82;21076;-67
2021/12/22 05:38:49;;;;;;;66.28;25.82;;;;;;;-6.64;89.11;99856.11;2185333;81;20984;-67
2021/12/22 05:41:49;;;;;;;56.73;22.42;;;;;;;-6.73;88.67;99864.80;2168161;82;20977;-67
2021/12/22 05:44:49;;;;;;;58.87;22.82;;;;;;;-6.73;89.11;99853.31;2185228;81;21039;-67
2021/12/22 05:47:51;;;;;;;59.48;22.93;;;;;;;-6.62;89.54;99855.72;2168192;82;21507;-68
2021/12/22 05:50:56;;;;;;;57.85;23.40;;;;;;;-6.51;89.34;99856.39;2185488;81;20976;-67
2021/12/22 05:53:54;;;;;;;63.73;26.65;;;;;;;-6.68;88.60;99860.68;2141501;82;20993;-67
2021/12/22 05:56:55;;;;;;;64.60;26.17;;;;;;;-6.76;88.65;99871.52;2185338;81;21007;-65
2021/12/22 05:59:55;;;;;;;60.20;24.75;;;;;;;-6.83;89.03;99870.06;2168177;82;20982;-67
2021/12/22 06:02:57;;;;;;;67.65;24.63;;;;;;;-6.78;89.19;99872.73;2185137;81;21007;-67
2021/12/22 06:05:57;;;;;;;66.40;25.37;;;;;;;-6.67;89.54;99876.84;2168308;82;21527;-67
2021/12/22 06:08:58;;;;;;;67.78;24.90;;;;;;;-6.60;89.37;99881.70;2185449;81;20964;-67
2021/12/22 06:11:58;;;;;;;68.30;25.25;;;;;;;-6.72;87.98;99889.50;2168243;82;21012;-67
2021/12/22 06:14:58;;;;;;;72.72;27.40;;;;;;;-6.88;87.96;99901.38;2185344;81;20995;-67
2021/12/22 06:18:01;;;;;;;73.97;27.55;;;;;;;-7.06;87.81;99900.50;2168408;82;21563;-67
2021/12/22 06:21:04;;;;;;;86.95;31.48;;;;;;;-7.07;88.69;99904.72;2156575;81;21482;-67
2021/12/22 06:24:05;;;;;;;86.82;31.77;;;;;;;-7.11;89.00;99911.85;2168338;82;21100;-67
2021/12/22 06:27:06;;;;;;;89.03;34.70;;;;;;;-7.12;89.53;99917.77;2185821;81;20963;-67
2021/12/22 06:30:06;;;;;;;88.97;34.00;;;;;;;-7.09;89.91;99916.58;2168154;82;21040;-67
2021/12/22 06:33:07;;;;;;;92.42;33.55;;;;;;;-7.06;90.37;99921.75;2185479;81;20977;-68
2021/12/22 06:36:07;;;;;;;97.90;33.53;;;;;;;-7.05;90.56;99919.67;2169788;82;21005;-68
2021/12/22 06:39:08;;;;;;;123.73;40.60;;;;;;;-6.98;89.87;99927.09;2192446;81;21019;-66
2021/12/22 06:42:08;;;;;;;139.95;50.33;;;;;;;-6.97;89.50;99930.06;2171818;82;21020;-67
2021/12/22 06:45:08;;;;;;;119.10;45.63;;;;;;;-6.94;89.21;99933.97;2192530;81;21487;-68
2021/12/22 06:48:09;;;;;;;118.85;40.55;;;;;;;-6.86;89.59;99938.88;2171930;82;21522;-67
2021/12/22 06:51:09;;;;;;;102.32;37.33;;;;;;;-6.85;89.06;99941.01;2192402;81;20967;-67
2021/12/22 06:54:10;;;;;;;99.20;37.05;;;;;;;-6.82;89.25;99941.97;2172053;82;21024;-67
2021/12/22 06:57:14;;;;;;;107.12;37.58;;;;;;;-6.83;88.88;99948.31;2192228;81;21011;-67
2021/12/22 07:00:12;;;;;;;98.80;35.55;;;;;;;-6.89;88.14;99954.11;2147142;82;21508;-67
2021/12/22 07:03:13;;;;;;;99.28;36.93;;;;;;;-7.06;88.19;99954.06;2192462;81;20979;-67
2021/12/22 07:06:14;;;;;;;93.07;36.28;;;;;;;-7.04;88.58;99962.22;2171800;82;20941;-67
2021/12/22 07:09:14;;;;;;;102.00;36.98;;;;;;;-6.84;88.64;99964.44;2192483;81;21030;-67
2021/12/22 07:12:14;;;;;;;98.95;37.83;;;;;;;-6.88;87.74;99966.05;2171882;82;21055;-67
2021/12/22 07:15:15;;;;;;;99.47;38.98;;;;;;;-6.91;87.67;99967.64;2192626;81;21019;-67
2021/12/22 07:18:16;;;;;;;122.72;48.52;;;;;;;-6.82;88.42;99964.08;2171762;82;21020;-67
2021/12/22 07:21:16;;;;;;;265.70;98.33;;;;;;;-6.67;88.59;99977.66;2192308;81;21481;-67
2021/12/22 07:24:17;;;;;;;243.27;93.30;;;;;;;-6.59;88.59;99980.02;2171696;82;21019;-66
2021/12/22 07:27:17;;;;;;;184.48;71.37;;;;;;;-6.51;88.50;99977.23;2192512;81;20959;-67
2021/12/22 07:30:18;;;;;;;156.40;64.87;;;;;;;-6.35;88.77;99980.19;2171548;82;21031;-67
2021/12/22 07:33:19;;;;;;;176.85;68.42;;;;;;;-6.26;88.80;99980.44;2192116;81;21003;-63
2021/12/22 07:36:20;;;;;;;139.10;57.73;;;;;;;-6.17;88.52;99981.08;2171772;82;21020;-67
2021/12/22 07:39:20;;;;;;;143.65;56.40;;;;;;;-6.34;87.92;99984.48;2192450;81;20987;-67
2021/12/22 07:42:20;;;;;;;112.80;43.40;;;;;;;-6.43;87.70;99989.36;2171734;82;21039;-67
2021/12/22 07:45:21;;;;;;;83.45;33.30;;;;;;;-6.47;87.66;99983.30;2192594;81;20972;-67
2021/12/22 07:48:21;;;;;;;76.45;30.97;;;;;;;-6.51;88.15;99991.27;2171752;82;20973;-67
2021/12/22 07:51:22;;;;;;;70.28;29.57;;;;;;;-6.41;88.55;99994.08;2192273;81;20979;-67
2021/12/22 07:54:22;;;;;;;63.70;26.70;;;;;;;-6.29;88.99;99990.58;2171555;82;21032;-67
2021/12/22 07:57:23;;;;;;;73.15;27.50;;;;;;;-6.11;88.88;100001.66;2192297;81;20963;-66
2021/12/22 08:00:23;;;;;;;66.35;26.68;;;;;;;-6.06;88.54;100001.38;2171936;82;20968;-67
2021/12/22 08:03:24;;;;;;;60.88;25.97;;;;;;;-5.95;88.47;100004.14;2192398;81;21026;-64
2021/12/22 08:06:24;;;;;;;69.25;26.17;;;;;;;-5.83;88.59;100004.84;2171853;82;21000;-66
2021/12/22 08:09:26;;;;;;;69.00;27.90;;;;;;;-5.53;88.99;100002.57;2192416;81;20983;-66
2021/12/22 08:12:26;;;;;;;69.40;28.60;;;;;;;-5.25;88.36;99995.96;2171802;82;20995;-66
2021/12/22 08:15:27;;;;;;;69.22;29.85;;;;;;;-5.08;88.05;99996.75;2192249;81;20968;-66
2021/12/22 08:18:27;;;;;;;66.65;29.23;;;;;;;-4.81;88.11;99995.17;2171675;82;21005;-66
2021/12/22 08:21:28;;;;;;;74.95;29.12;;;;;;;-4.56;87.96;99996.49;2192388;81;21320;-66
2021/12/22 08:24:28;;;;;;;68.37;29.63;;;;;;;-4.32;87.63;100002.04;2171842;82;20949;-66
2021/12/22 08:27:28;;;;;;;68.15;30.20;;;;;;;-4.07;87.22;99999.07;2192444;81;20967;-66
2021/12/22 08:30:30;;;;;;;75.17;34.60;;;;;;;-3.83;87.00;99999.91;2171488;82;21036;-67
2021/12/22 08:33:33;;;;;;;75.05;33.08;;;;;;;-3.68;86.54;100001.87;2192266;81;20924;-66
2021/12/22 08:39:35;;;;;;;68.78;28.27;;;;;;;-3.21;86.54;99997.39;2165270;81;21066;-66
2021/12/22 08:42:35;;;;;;;62.20;27.32;;;;;;;-2.99;86.13;99999.81;2171912;82;20985;-66
2021/12/22 08:45:36;;;;;;;65.50;30.32;;;;;;;-2.75;85.85;100000.98;2192260;81;20967;-66
2021/12/22 08:48:36;;;;;;;71.77;31.75;;;;;;;-2.61;85.91;99999.42;2171739;82;21516;-66
2021/12/22 08:51:37;;;;;;;53.20;23.50;;;;;;;-2.40;84.98;100001.34;2192286;81;20966;-65
2021/12/22 08:54:37;;;;;;;59.73;25.12;;;;;;;-2.34;84.60;100001.43;2171673;82;20984;-66
2021/12/22 08:57:38;;;;;;;50.05;20.10;;;;;;;-2.28;83.86;100003.20;2192506;81;21016;-67
2021/12/22 09:00:39;;;;;;;46.08;19.32;;;;;;;-2.31;83.54;100005.75;2171801;82;20989;-66
2021/12/22 09:03:39;;;;;;;45.03;18.98;;;;;;;-2.39;83.39;100011.22;2192352;81;20979;-66
2021/12/22 09:06:40;;;;;;;47.15;19.10;;;;;;;-2.45;83.05;100007.73;2171784;82;21491;-66
2021/12/22 09:09:40;;;;;;;39.63;14.68;;;;;;;-2.43;83.83;100012.88;2192282;81;20964;-66
2021/12/22 09:12:41;;;;;;;40.52;15.78;;;;;;;-2.44;82.81;100018.45;2171644;82;20971;-66
2021/12/22 09:15:42;;;;;;;37.10;13.68;;;;;;;-2.50;83.45;100013.66;2192440;81;20959;-66
2021/12/22 09:18:42;;;;;;;38.20;14.63;;;;;;;-2.50;82.61;100017.52;2171784;82;20957;-66
2021/12/22 09:21:43;;;;;;;40.25;15.10;;;;;;;-2.61;82.90;100019.98;2192191;81;20932;-66
2021/12/22 09:24:43;;;;;;;37.15;13.95;;;;;;;-2.63;83.27;100016.52;2171928;82;20985;-66
2021/12/22 09:27:44;;;;;;;32.88;11.60;;;;;;;-2.58;83.93;100016.59;2192530;81;20959;-66
2021/12/22 09:30:45;;;;;;;35.50;12.90;;;;;;;-2.47;82.22;100018.42;2171436;82;21064;-66
2021/12/22 09:33:46;;;;;;;31.68;12.15;;;;;;;-2.42;81.68;100016.33;2192019;81;21486;-67
2021/12/22 09:36:46;;;;;;;35.00;11.80;;;;;;;-2.32;81.63;100010.44;2171523;82;21064;-66
2021/12/22 09:39:47;;;;;;;35.50;12.73;;;;;;;-2.22;81.50;100013.97;2192242;81;21037;-66
2021/12/22 09:42:48;;;;;;;32.98;11.93;;;;;;;-2.00;81.46;100011.17;2171745;82;21020;-66
2021/12/22 09:45:53;;;;;;;39.92;14.05;;;;;;;-1.96;80.52;100017.63;2192395;81;21010;-66
2021/12/22 09:54:53;;;;;;;43.35;17.00;;;;;;;-1.93;81.53;100007.80;2146997;82;21578;-67
2021/12/22 09:57:54;;;;;;;39.73;14.45;;;;;;;-1.89;81.59;100010.84;2192580;81;21019;-67
2021/12/22 10:00:54;;;;;;;36.58;12.37;;;;;;;-1.94;79.95;100000.52;2172060;82;21040;-67
2021/12/22 10:03:55;;;;;;;33.55;12.50;;;;;;;-2.01;79.87;100012.00;2192592;81;21006;-66
2021/12/22 10:06:55;;;;;;;35.28;12.18;;;;;;;-1.98;79.54;100007.77;2172090;82;20988;-65
2021/12/22 10:09:57;;;;;;;33.20;11.90;;;;;;;-1.82;79.15;100000.19;2192180;81;20988;-66
2021/12/22 10:12:57;;;;;;;32.90;13.32;;;;;;;-1.66;77.59;99998.16;2171842;82;20992;-67
2021/12/22 10:15:57;;;;;;;34.95;12.63;;;;;;;-1.61;78.12;99993.04;2192561;81;20994;-66
2021/12/22 10:18:58;;;;;;;32.35;12.35;;;;;;;-1.52;79.28;99994.81;2171821;82;21495;-67
2021/12/22 10:21:58;;;;;;;30.08;11.65;;;;;;;-1.43;76.73;99988.45;2192390;81;21469;-67
2021/12/22 10:24:59;;;;;;;36.53;13.00;;;;;;;-1.19;76.67;99985.17;2171837;82;20989;-67
2021/12/22 10:28:00;;;;;;;31.37;11.95;;;;;;;-1.14;76.72;99983.46;2192402;81;21023;-67
2021/12/22 10:31:01;;;;;;;33.80;11.85;;;;;;;-1.14;75.53;99978.31;2172023;82;20981;-67
2021/12/22 10:34:02;;;;;;;31.43;10.83;;;;;;;-1.34;74.42;99983.79;2192796;81;20968;-66
2021/12/22 10:37:02;;;;;;;32.13;11.08;;;;;;;-1.44;75.95;99985.03;2170008;82;21555;-67
2021/12/22 10:40:03;;;;;;;32.90;11.15;;;;;;;-1.51;75.44;99988.83;2185067;81;21027;-67
2021/12/22 10:43:03;;;;;;;32.38;11.33;;;;;;;-1.55;74.90;99986.67;2168300;82;21471;-67
2021/12/22 10:46:04;;;;;;;33.75;11.48;;;;;;;-1.64;74.73;99992.62;2185491;81;21010;-67
2021/12/22 10:52:06;;;;;;;27.70;9.25;;;;;;;-1.42;76.69;99987.17;2156520;81;20995;-67
2021/12/22 10:55:07;;;;;;;27.42;9.10;;;;;;;-1.50;72.93;99999.56;2168314;82;20992;-67
2021/12/22 10:58:07;;;;;;;27.98;9.20;;;;;;;-1.63;72.93;99991.74;2182030;81;21039;-67
2021/12/22 11:01:08;;;;;;;30.10;9.20;;;;;;;-1.70;74.89;99990.41;2181945;81;20977;-67
2021/12/22 11:04:10;;;;;;;27.93;8.63;;;;;;;-1.70;74.21;99989.98;2182168;81;20948;-68
2021/12/22 11:07:13;;;;;;;26.55;8.63;;;;;;;-1.64;74.46;99992.62;2181875;82;21043;-67
2021/12/22 11:10:12;;;;;;;27.80;7.72;;;;;;;-1.63;74.72;99987.03;2154896;82;21036;-67
2021/12/22 11:13:13;;;;;;;28.52;9.18;;;;;;;-1.69;73.85;99994.72;2182010;81;20992;-67
2021/12/22 11:16:13;;;;;;;26.65;8.53;;;;;;;-1.75;74.59;99982.67;2182145;82;21025;-68
2021/12/22 11:19:14;;;;;;;26.40;8.78;;;;;;;-1.77;74.37;99987.80;2182117;81;21519;-67
2021/12/22 11:22:15;;;;;;;29.37;10.28;;;;;;;-1.70;75.22;99977.55;2182114;82;20980;-67
2021/12/22 11:25:16;;;;;;;29.75;8.78;;;;;;;-1.60;75.71;99981.47;2185491;81;21423;-67
2021/12/22 11:28:16;;;;;;;27.10;8.10;;;;;;;-1.53;75.23;99987.53;2168155;82;20993;-67
2021/12/22 11:31:17;;;;;;;30.25;9.18;;;;;;;-1.48;73.66;99984.58;2168328;82;21004;-66
2021/12/22 11:34:18;;;;;;;27.58;8.63;;;;;;;-1.55;74.23;99987.95;2167783;82;21059;-67
2021/12/22 11:37:18;;;;;;;25.62;7.83;;;;;;;-1.68;74.79;99981.86;2168374;82;21000;-67
2021/12/22 11:40:21;;;;;;;23.83;7.53;;;;;;;-1.71;74.15;99983.53;2167796;82;21012;-66
2021/12/22 11:43:21;;;;;;;40.43;12.07;;;;;;;-1.74;73.73;99985.66;2141569;82;21024;-68
2021/12/22 11:46:21;;;;;;;39.65;10.82;;;;;;;-1.77;74.07;99985.23;2185311;81;20972;-68
2021/12/22 11:49:22;;;;;;;27.73;8.13;;;;;;;-1.73;75.24;99980.95;2168226;82;21567;-67
2021/12/22 11:52:22;;;;;;;27.22;7.90;;;;;;;-1.73;73.59;99980.10;2182084;81;21483;-66
2021/12/22 11:55:22;;;;;;;25.52;7.03;;;;;;;-1.89;72.67;99978.69;2181993;81;21539;-67
2021/12/22 11:58:24;;;;;;;23.02;7.40;;;;;;;-1.94;74.23;99977.78;2181890;81;20990;-66
2021/12/22 12:01:25;;;;;;;26.80;7.25;;;;;;;-1.97;73.31;99976.06;2182115;81;21016;-67
2021/12/22 12:04:25;;;;;;;23.98;7.37;;;;;;;-1.91;75.41;99972.69;2182098;82;20948;-67
2021/12/22 12:07:26;;;;;;;23.95;6.83;;;;;;;-1.82;74.77;99965.47;2181978;81;21471;-67
2021/12/22 12:10:27;;;;;;;24.37;6.20;;;;;;;-1.74;74.86;99972.79;2181977;81;21036;-67
2021/12/22 12:13:36;;;;;;;22.67;6.75;;;;;;;-1.73;74.50;99969.38;2181959;81;21056;-65
2021/12/22 12:22:35;;;;;;;25.52;6.17;;;;;;;-1.91;72.15;99970.12;2154710;82;21031;-67
2021/12/22 12:25:36;;;;;;;23.62;6.65;;;;;;;-1.95;73.43;99962.78;2182113;82;20992;-67
2021/12/22 12:28:37;;;;;;;22.87;6.50;;;;;;;-1.91;74.29;99959.83;2182237;81;20984;-67
2021/12/22 12:31:38;;;;;;;23.65;6.62;;;;;;;-1.92;73.11;99960.67;2181915;82;20984;-67
2021/12/22 12:34:42;;;;;;;23.77;6.65;;;;;;;-1.98;72.99;99967.91;2182071;81;20957;-67
2021/12/22 12:37:40;;;;;;;25.27;6.95;;;;;;;-2.01;73.51;99961.45;2154808;82;21021;-67
2021/12/22 12:40:41;;;;;;;23.92;6.62;;;;;;;-1.99;72.77;99958.90;2181837;81;21567;-67
2021/12/22 12:46:43;;;;;;;25.20;7.17;;;;;;;-1.94;72.69;99950.78;2182322;81;21003;-67
2021/12/22 12:49:45;;;;;;;22.60;6.53;;;;;;;-1.96;74.15;99952.48;2182168;82;21040;-67
2021/12/22 12:52:45;;;;;;;25.72;7.10;;;;;;;-1.98;72.73;99948.63;2182261;82;21015;-67
2021/12/22 12:55:46;;;;;;;24.45;6.95;;;;;;;-1.98;72.06;99960.63;2181972;81;21043;-67
2021/12/22 12:58:46;;;;;;;23.73;6.40;;;;;;;-2.03;73.14;99956.70;2181989;81;21076;-67
2021/12/22 13:01:47;;;;;;;22.70;6.97;;;;;;;-2.09;72.08;99960.53;2181872;81;21014;-67
2021/12/22 13:04:47;;;;;;;22.70;6.25;;;;;;;-2.06;73.48;99962.27;2182043;81;21503;-68
2021/12/22 13:07:47;;;;;;;24.90;6.97;;;;;;;-1.96;72.44;99960.20;2181928;81;20941;-67
2021/12/22 13:10:54;;;;;;;25.32;6.55;;;;;;;-1.79;72.42;99956.05;2181884;81;21000;-67
2021/12/22 13:15:46;;;;;;;33.53;8.13;;;;;;;-1.71;71.87;99962.95;2155123;82;21539;-68
2021/12/22 13:16:52;;;;;;;31.02;8.03;;;;;;;-1.69;72.38;99954.41;2154767;82;21024;-67
2021/12/22 13:19:54;;;;;;;30.40;7.90;;;;;;;-1.60;71.90;99957.46;2182067;81;21080;-67
2021/12/22 13:22:55;;;;;;;25.37;6.97;;;;;;;-1.69;72.26;99962.56;2181928;81;21555;-67
2021/12/22 13:25:57;;;;;;;26.10;7.62;;;;;;;-1.81;71.10;99967.17;2181884;81;20993;-68
2021/12/22 13:28:57;;;;;;;27.40;8.13;;;;;;;-1.86;71.74;99961.99;2182422;81;20972;-68
2021/12/22 13:31:57;;;;;;;26.70;7.72;;;;;;;-1.91;72.27;99961.11;2182126;81;21040;-67
2021/12/22 13:34:59;;;;;;;25.72;7.90;;;;;;;-1.94;72.47;99963.63;2182018;81;21016;-67
2021/12/22 13:38:00;;;;;;;23.55;7.08;;;;;;;-2.02;72.48;99964.02;2181990;82;21502;-69
2021/12/22 13:41:00;;;;;;;23.92;7.20;;;;;;;-2.10;72.86;99966.50;2181782;81;21116;-69
2021/12/22 13:44:01;;;;;;;26.25;7.75;;;;;;;-2.13;72.90;99969.05;2182048;81;21045;-69
2021/12/22 13:47:01;;;;;;;25.08;7.58;;;;;;;-2.22;73.06;99972.41;2182027;81;21067;-69
2021/12/22 13:50:03;;;;;;;27.77;8.17;;;;;;;-2.30;73.37;99971.06;2181915;82;21630;-69
2021/12/22 13:53:03;;;;;;;27.15;8.18;;;;;;;-2.33;73.89;99977.46;2182008;81;20977;-69
2021/12/22 13:56:04;;;;;;;24.20;7.62;;;;;;;-2.41;73.52;99978.20;2182263;81;21274;-69
2021/12/22 13:59:04;;;;;;;27.98;7.87;;;;;;;-2.58;73.18;99980.63;2181903;81;21067;-69
2021/12/22 14:02:04;;;;;;;31.25;9.10;;;;;;;-2.73;73.64;99982.17;2182028;81;21079;-69
2021/12/22 14:05:05;;;;;;;30.75;9.08;;;;;;;-2.83;73.69;99982.89;2182264;81;21486;-69
2021/12/22 14:08:05;;;;;;;27.82;9.25;;;;;;;-3.01;74.05;99980.54;2181896;81;20973;-69
2021/12/22 14:11:06;;;;;;;28.95;8.85;;;;;;;-3.15;74.43;99980.39;2181998;81;21021;-69
2021/12/22 14:14:06;;;;;;;38.73;12.23;;;;;;;-3.26;74.91;99980.66;2182133;81;21012;-69
2021/12/22 14:17:07;;;;;;;52.90;17.32;;;;;;;-3.28;75.33;99982.33;2185100;81;21099;-70
2021/12/22 14:20:09;;;;;;;53.42;19.82;;;;;;;-3.29;75.79;99975.46;2167991;82;21051;-69
2021/12/22 14:23:09;;;;;;;54.35;19.20;;;;;;;-3.28;75.81;99977.19;2185145;81;20951;-69
2021/12/22 14:26:10;;;;;;;55.10;20.20;;;;;;;-3.32;75.83;99974.14;2168260;82;21022;-67
2021/12/22 14:29:10;;;;;;;50.88;18.37;;;;;;;-3.43;75.87;99974.41;2185541;81;20975;-68